Time;durP1;ratioP1;P1;durP2;ratioP2;P2;SDS_P1;SDS_P2;PMS_P1;PMS_P2;Temp;Humidity;BMP_temperature;BMP_pressure;BME280_temperature;BME280_humidity;BME280_pressure;Samples;Min_cycle;Max_cycle;Signal;HPM_P1;HPM_P2
2023/01/01 00:00:03;;;;;;;38.80;19.70;;;12.90;99.90;;;;;;5030156;28;20057;-69
2023/01/01 00:02:29;;;;;;;34.40;19.52;;;13.00;99.90;;;;;;5028730;28;20103;-68
2023/01/01 00:04:55;;;;;;;43.95;21.55;;;13.10;99.90;;;;;;5031429;28;20042;-67
2023/01/01 00:07:20;;;;;;;35.78;22.30;;;12.80;99.90;;;;;;5031259;28;20077;-66
2023/01/01 00:12:31;;;;;;;38.03;20.30;;;12.70;99.90;;;;;;5030833;28;20563;-67
2023/01/01 00:14:57;;;;;;;37.35;17.27;;;13.10;99.90;;;;;;5030730;28;20045;-68
2023/01/01 00:17:23;;;;;;;29.85;14.77;;;13.40;99.90;;;;;;5031228;28;20049;-66
2023/01/01 00:19:48;;;;;;;31.85;14.90;;;12.80;99.90;;;;;;5046430;28;20054;-66
2023/01/01 00:22:14;;;;;;;32.60;14.48;;;12.90;99.90;;;;;;5031351;28;20124;-67
2023/01/01 00:24:40;;;;;;;28.15;12.52;;;13.00;99.90;;;;;;5031094;28;20042;-67
2023/01/01 00:27:05;;;;;;;31.55;12.98;;;12.90;99.90;;;;;;5031145;28;20057;-68
2023/01/01 00:29:31;;;;;;;29.02;13.15;;;12.70;99.90;;;;;;5030975;28;20429;-69
2023/01/01 00:31:57;;;;;;;;;;;13.00;99.90;;;;;;5031572;28;20053;-69
2023/01/01 00:34:23;;;;;;;31.85;14.27;;;13.00;99.90;;;;;;5031327;28;20377;-67
2023/01/01 00:36:48;;;;;;;32.88;14.52;;;13.00;99.90;;;;;;5031203;28;20080;-69
2023/01/01 00:39:14;;;;;;;30.00;14.75;;;13.20;99.90;;;;;;5031031;28;20478;-67
2023/01/01 00:41:40;;;;;;;26.92;13.57;;;13.10;99.90;;;;;;5030641;28;20401;-67
2023/01/01 00:44:06;;;;;;;29.88;14.95;;;12.90;99.90;;;;;;5030826;28;20056;-67
2023/01/01 00:46:31;;;;;;;35.40;14.82;;;13.30;99.90;;;;;;5030454;28;20092;-71
2023/01/01 00:48:57;;;;;;;29.23;14.52;;;13.30;99.90;;;;;;5030107;28;20103;-67
2023/01/01 00:51:23;;;;;;;35.50;16.60;;;13.10;99.90;;;;;;5031175;28;20045;-68
2023/01/01 00:53:48;;;;;;;34.20;16.27;;;13.20;99.90;;;;;;5030896;28;20099;-66
2023/01/01 00:56:14;;;;;;;33.50;17.17;;;12.90;99.90;;;;;;5013094;28;20348;-67
2023/01/01 00:58:40;;;;;;;29.20;17.90;;;13.10;99.90;;;;;;5030551;28;20132;-69
2023/01/01 01:01:06;;;;;;;34.83;18.45;;;13.00;99.90;;;;;;5029256;28;20052;-67
2023/01/01 01:03:31;;;;;;;37.50;18.85;;;13.20;99.90;;;;;;5029612;28;20064;-66
2023/01/01 01:06:09;;;;;;;42.03;19.90;;;13.50;99.90;;;;;;5029560;28;20045;-70
2023/01/01 01:08:37;;;;;;;37.13;20.63;;;13.30;99.90;;;;;;5030936;28;20037;-66
2023/01/01 01:11:18;;;;;;;37.22;21.63;;;13.20;99.90;;;;;;5030977;28;20053;-68
2023/01/01 01:13:45;;;;;;;35.03;21.17;;;13.30;99.90;;;;;;5030622;28;20609;-68
2023/01/01 01:16:23;;;;;;;38.13;23.17;;;13.30;99.90;;;;;;5030551;28;20092;-68
2023/01/01 01:18:51;;;;;;;40.10;21.92;;;13.10;99.90;;;;;;5031903;28;20088;-67
2023/01/01 01:21:19;;;;;;;40.75;23.85;;;13.20;99.90;;;;;;5034426;28;20045;-66
2023/01/01 01:23:46;;;;;;;35.63;22.35;;;12.90;99.90;;;;;;5034161;28;20469;-65
2023/01/01 01:26:11;;;;;;;39.30;22.75;;;12.80;99.90;;;;;;5033841;28;20049;-66
2023/01/01 01:28:38;;;;;;;42.53;23.70;;;13.10;99.90;;;;;;5034186;28;20080;-66
2023/01/01 01:31:04;;;;;;;39.67;22.08;;;12.80;99.90;;;;;;5048979;28;20465;-67
2023/01/01 01:33:29;;;;;;;37.67;20.50;;;12.70;99.90;;;;;;5034109;28;20047;-66
2023/01/01 01:35:55;;;;;;;40.83;21.73;;;12.90;99.90;;;;;;5033570;28;20042;-66
2023/01/01 01:38:21;;;;;;;37.83;20.48;;;12.10;99.90;;;;;;5033635;28;20049;-67
2023/01/01 01:40:47;;;;;;;42.45;20.85;;;12.80;99.90;;;;;;5033652;28;20045;-65
2023/01/01 01:43:24;;;;;;;;;;;12.90;99.90;;;;;;5034554;28;20052;-66
2023/01/01 01:45:56;;;;;;;45.58;17.63;;;13.20;99.90;;;;;;5033744;28;20001;-69
2023/01/01 01:48:23;;;;;;;40.35;16.45;;;12.90;99.90;;;;;;5033618;28;20053;-70
2023/01/01 01:50:52;;;;;;;34.58;12.60;;;12.00;99.90;;;;;;5032576;28;20133;-68
2023/01/01 01:53:31;;;;;;;32.83;10.82;;;14.00;99.90;;;;;;5033674;28;20132;-66
2023/01/01 01:56:00;;;;;;;28.95;8.80;;;11.40;99.90;;;;;;5033537;28;20045;-65
2023/01/01 01:58:28;;;;;;;30.00;9.60;;;13.10;99.90;;;;;;5033648;28;20063;-66
2023/01/01 02:00:54;;;;;;;25.80;10.32;;;13.10;99.90;;;;;;5033252;28;20057;-65
2023/01/01 02:03:25;;;;;;;28.60;10.50;;;9.60;99.90;;;;;;5033163;28;20494;-65
2023/01/01 02:05:51;;;;;;;31.67;10.38;;;10.40;99.90;;;;;;5033134;28;20577;-66
2023/01/01 02:08:18;;;;;;;;;;;9.70;99.90;;;;;;5033682;28;20057;-65
2023/01/01 02:10:43;;;;;;;29.48;10.48;;;11.50;99.90;;;;;;5033290;28;19929;-66
2023/01/01 02:13:10;;;;;;;27.60;11.05;;;13.80;99.90;;;;;;5033099;28;20071;-65
2023/01/01 02:16:19;;;;;;;35.88;14.23;;;10.30;99.90;;;;;;5033497;28;20045;-65
2023/01/01 02:18:59;;;;;;;34.72;14.40;;;10.20;99.90;;;;;;5017525;28;20441;-66
2023/01/01 02:21:32;;;;;;;44.72;15.30;;;11.80;99.90;;;;;;5033420;28;20111;-65
2023/01/01 02:25:00;;;;;;;39.28;15.48;;;13.40;99.90;;;;;;5032018;28;20498;-66
2023/01/01 02:27:41;;;;;;;39.55;16.05;;;10.30;99.90;;;;;;4999149;28;20064;-65
2023/01/01 02:30:08;;;;;;;37.33;17.13;;;11.70;99.90;;;;;;5033498;28;20128;-66
2023/01/01 02:32:54;;;;;;;40.47;17.02;;;12.20;99.90;;;;;;5033153;28;20437;-66
2023/01/01 02:35:44;;;;;;;39.03;17.67;;;10.50;99.90;;;;;;5033093;28;20084;-66
2023/01/01 02:38:22;;;;;;;43.55;19.80;;;12.90;99.90;;;;;;5033108;28;20053;-65
2023/01/01 02:41:09;;;;;;;37.33;16.63;;;13.40;99.90;;;;;;5032873;28;20045;-65
2023/01/01 02:43:36;;;;;;;33.42;12.45;;;13.40;99.90;;;;;;5033041;28;20045;-65
2023/01/01 02:46:11;;;;;;;34.47;13.05;;;13.50;99.90;;;;;;5032804;28;20124;-65
2023/01/01 02:48:45;;;;;;;26.70;10.23;;;14.30;99.90;;;;;;5032983;28;20053;-66
2023/01/01 02:51:45;;;;;;;23.25;8.18;;;10.20;99.90;;;;;;5032958;28;20041;-65
2023/01/01 02:54:40;;;;;;;19.02;8.02;;;10.20;99.90;;;;;;5031226;28;20046;-66
2023/01/01 02:57:35;;;;;;;21.13;6.70;;;10.50;99.90;;;;;;5032522;28;20067;-65
2023/01/01 03:00:27;;;;;;;22.70;6.85;;;10.90;99.90;;;;;;5032736;28;20057;-65
2023/01/01 03:03:01;;;;;;;28.45;6.50;;;13.90;99.90;;;;;;5032487;28;20045;-65
2023/01/01 03:05:34;;;;;;;24.23;6.18;;;13.80;99.90;;;;;;5031408;28;20045;-64
2023/01/01 03:08:09;;;;;;;17.42;5.40;;;10.50;99.90;;;;;;5032114;28;20050;-66
2023/01/01 03:11:02;;;;;;;16.92;5.50;;;10.30;99.90;;;;;;5048049;28;20057;-64
2023/01/01 03:13:59;;;;;;;16.15;6.10;;;13.40;99.90;;;;;;5032483;28;20096;-65
2023/01/01 03:16:36;;;;;;;18.00;5.88;;;13.20;99.90;;;;;;5047786;28;20045;-65
2023/01/01 03:19:24;;;;;;;19.52;5.88;;;13.40;99.90;;;;;;5032268;28;20053;-66
2023/01/01 03:22:01;;;;;;;21.52;6.15;;;13.60;99.90;;;;;;5031382;28;20049;-66
2023/01/01 03:24:35;;;;;;;18.58;6.38;;;11.60;99.90;;;;;;5031998;28;20552;-65
2023/01/01 03:27:11;;;;;;;20.95;6.03;;;11.20;99.90;;;;;;5032300;28;20053;-66
2023/01/01 03:29:40;;;;;;;17.17;6.00;;;12.70;99.90;;;;;;5031975;28;20486;-65
2023/01/01 03:32:13;;;;;;;22.30;6.18;;;13.10;99.90;;;;;;5032195;28;20448;-66
2023/01/01 03:34:46;;;;;;;16.58;6.22;;;10.80;99.90;;;;;;5032178;28;20052;-65
2023/01/01 03:37:18;;;;;;;18.17;4.97;;;11.80;99.90;;;;;;5030568;28;20120;-65
2023/01/01 03:39:49;;;;;;;14.98;4.65;;;11.10;99.90;;;;;;5031966;28;20053;-66
2023/01/01 03:42:32;;;;;;;15.32;4.32;;;11.50;99.90;;;;;;5031353;28;20053;-65
2023/01/01 03:45:04;;;;;;;15.43;4.82;;;11.00;99.90;;;;;;5031851;28;20052;-65
2023/01/01 03:47:30;;;;;;;20.20;5.70;;;13.30;99.90;;;;;;5031908;28;20060;-65
2023/01/01 03:49:57;;;;;;;18.95;5.50;;;12.70;99.90;;;;;;5031594;28;20550;-66
2023/01/01 03:52:30;;;;;;;15.55;5.63;;;13.00;99.90;;;;;;5031435;28;20038;-67
2023/01/01 03:55:11;;;;;;;21.63;5.63;;;12.40;99.90;;;;;;5031898;28;20049;-66
2023/01/01 03:57:48;;;;;;;24.70;6.10;;;10.60;99.90;;;;;;5031594;28;20064;-67
2023/01/01 04:00:20;;;;;;;26.67;6.50;;;11.40;99.90;;;;;;5031324;28;20450;-67
2023/01/01 04:03:10;;;;;;;16.13;5.03;;;11.50;99.90;;;;;;5031822;28;20133;-66
2023/01/01 04:05:39;;;;;;;15.43;4.88;;;11.10;99.90;;;;;;5031443;28;20057;-65
2023/01/01 04:08:05;;;;;;;12.85;4.88;;;12.90;99.90;;;;;;5031700;28;20045;-65
2023/01/01 04:10:34;;;;;;;16.60;5.25;;;12.60;99.90;;;;;;5031466;28;20098;-67
2023/01/01 04:13:03;;;;;;;22.20;5.32;;;11.00;99.90;;;;;;5031439;28;20087;-67
2023/01/01 04:15:29;;;;;;;25.15;6.00;;;12.40;99.90;;;;;;5031232;28;20049;-66
2023/01/01 04:17:55;;;;;;;13.70;4.78;;;10.70;99.90;;;;;;5031163;28;20037;-66
2023/01/01 04:20:21;;;;;;;20.33;5.22;;;11.20;99.90;;;;;;5031225;28;20052;-65
2023/01/01 04:22:47;;;;;;;;;;;12.60;99.90;;;;;;5032079;28;20052;-66
2023/01/01 04:25:13;;;;;;;21.33;5.60;;;10.90;99.90;;;;;;5031423;28;19924;-68
2023/01/01 04:27:39;;;;;;;23.67;4.97;;;10.90;99.90;;;;;;5031447;28;20430;-66
2023/01/01 04:30:06;;;;;;;;;;;12.80;99.90;;;;;;5032017;28;20055;-66
2023/01/01 04:32:32;;;;;;;17.42;4.40;;;12.70;99.90;;;;;;5031409;28;19972;-68
2023/01/01 04:34:58;;;;;;;17.98;5.30;;;11.40;99.90;;;;;;5031001;28;20131;-66
2023/01/01 04:37:24;;;;;;;21.42;5.18;;;11.50;99.90;;;;;;5031069;28;20135;-66
2023/01/01 04:39:49;;;;;;;18.45;4.38;;;11.70;99.90;;;;;;5031693;28;20084;-66
2023/01/01 04:42:15;;;;;;;22.50;5.18;;;11.60;99.90;;;;;;5030946;28;20045;-66
2023/01/01 04:44:41;;;;;;;17.35;4.07;;;11.20;99.90;;;;;;5031080;28;20075;-66
2023/01/01 04:47:06;;;;;;;18.20;4.07;;;11.70;99.90;;;;;;5031061;28;20049;-65
2023/01/01 04:49:32;;;;;;;18.15;4.25;;;11.10;99.90;;;;;;5029446;28;20042;-66
2023/01/01 04:51:58;;;;;;;16.55;3.42;;;10.90;99.90;;;;;;5030846;28;20065;-66
2023/01/01 04:54:23;;;;;;;16.30;3.58;;;12.30;99.90;;;;;;5032098;28;20565;-66
2023/01/01 04:56:49;;;;;;;17.58;3.65;;;11.40;99.90;;;;;;5034481;28;20757;-68
2023/01/01 04:59:15;;;;;;;10.65;3.15;;;12.40;99.90;;;;;;5034753;28;20060;-67
2023/01/01 05:01:40;;;;;;;15.02;4.13;;;11.20;99.90;;;;;;5034945;28;20045;-67
2023/01/01 05:04:06;;;;;;;15.60;3.15;;;11.30;99.90;;;;;;5034551;28;20045;-66
2023/01/01 05:06:32;;;;;;;17.15;4.15;;;12.80;99.90;;;;;;5034771;28;20053;-67
2023/01/01 05:08:59;;;;;;;24.35;5.28;;;12.20;99.90;;;;;;5034718;28;20045;-66
2023/01/01 05:11:29;;;;;;;20.55;5.30;;;12.80;99.90;;;;;;5034693;28;20049;-66
2023/01/01 05:13:58;;;;;;;27.17;5.20;;;12.40;99.90;;;;;;5034794;28;20213;-66
2023/01/01 05:16:31;;;;;;;29.33;5.00;;;12.30;99.90;;;;;;5034310;28;20088;-66
2023/01/01 05:18:57;;;;;;;24.02;5.35;;;11.40;99.90;;;;;;5034094;28;20037;-65
2023/01/01 05:21:27;;;;;;;;;;;11.20;99.90;;;;;;5034356;28;20056;-65
2023/01/01 05:23:58;;;;;;;27.92;5.28;;;11.30;99.90;;;;;;5034344;28;19921;-66
2023/01/01 05:26:27;;;;;;;24.65;5.45;;;11.50;99.90;;;;;;5033930;28;20052;-66
2023/01/01 05:28:54;;;;;;;23.67;5.47;;;12.50;99.90;;;;;;5033966;28;20516;-66
2023/01/01 05:31:21;;;;;;;29.95;5.25;;;11.70;99.90;;;;;;5034324;28;20100;-66
2023/01/01 05:33:48;;;;;;;25.90;4.70;;;11.40;99.90;;;;;;5034012;28;20112;-65
2023/01/01 05:36:17;;;;;;;35.63;5.60;;;12.30;99.90;;;;;;5034158;28;20049;-65
2023/01/01 05:38:43;;;;;;;22.75;5.25;;;12.40;99.90;;;;;;5034046;28;20107;-65
2023/01/01 05:41:12;;;;;;;23.52;4.93;;;11.80;99.90;;;;;;5034104;28;20061;-67
2023/01/01 05:43:38;;;;;;;16.05;4.50;;;12.30;99.90;;;;;;5034106;28;20045;-66
2023/01/01 05:46:06;;;;;;;22.25;4.80;;;11.20;99.90;;;;;;5032728;28;20124;-65
2023/01/01 05:48:35;;;;;;;17.52;3.65;;;11.50;99.90;;;;;;5033210;28;20128;-66
2023/01/01 05:51:22;;;;;;;18.58;3.67;;;11.50;99.90;;;;;;5033696;28;20124;-69
2023/01/01 05:53:48;;;;;;;21.40;5.15;;;11.90;99.90;;;;;;5033700;28;20045;-65
2023/01/01 05:56:15;;;;;;;18.73;4.32;;;11.50;99.90;;;;;;5033204;28;20064;-67
2023/01/01 05:58:42;;;;;;;15.02;4.10;;;11.60;99.90;;;;;;5033578;28;20068;-69
2023/01/01 06:01:33;;;;;;;29.00;4.60;;;11.40;99.90;;;;;;5033150;28;20063;-67
2023/01/01 06:03:59;;;;;;;25.98;4.43;;;11.30;99.90;;;;;;5033346;28;20053;-65
2023/01/01 06:06:27;;;;;;;20.98;3.40;;;11.60;99.90;;;;;;5033231;28;20096;-66
2023/01/01 06:08:56;;;;;;;15.63;3.28;;;11.50;99.90;;;;;;5033330;28;20047;-68
2023/01/01 06:11:22;;;;;;;24.90;3.90;;;11.80;99.90;;;;;;5033498;28;20089;-67
2023/01/01 06:13:50;;;;;;;;;;;11.70;99.90;;;;;;5033524;28;20049;-65
2023/01/01 06:16:16;;;;;;;23.70;4.03;;;11.40;99.90;;;;;;5032688;28;20046;-69
2023/01/01 06:18:41;;;;;;;17.17;3.08;;;11.60;99.90;;;;;;5032930;28;20088;-66
2023/01/01 06:21:08;;;;;;;21.08;3.83;;;11.80;99.90;;;;;;5031777;28;20096;-66
2023/01/01 06:23:34;;;;;;;20.80;3.10;;;11.80;99.90;;;;;;5033150;28;20132;-67
2023/01/01 06:26:12;;;;;;;15.98;3.38;;;11.00;99.90;;;;;;5032817;28;20144;-67
2023/01/01 06:28:38;;;;;;;20.52;3.65;;;11.10;99.90;;;;;;5032778;28;20116;-66
2023/01/01 06:31:04;;;;;;;;;;;11.00;99.90;;;;;;5033075;28;20474;-65
2023/01/01 06:33:31;;;;;;;24.37;3.53;;;11.40;99.90;;;;;;5033075;28;19925;-66
2023/01/01 06:35:57;;;;;;;21.67;3.97;;;11.30;99.90;;;;;;5031416;28;20073;-67
2023/01/01 06:38:23;;;;;;;18.42;3.20;;;10.70;99.90;;;;;;5032868;28;20132;-66
2023/01/01 06:41:16;;;;;;;13.93;3.13;;;11.20;99.90;;;;;;5032883;28;20125;-66
2023/01/01 06:43:43;;;;;;;13.93;3.15;;;11.50;99.90;;;;;;5029961;28;20057;-67
2023/01/01 06:46:27;;;;;;;25.48;3.70;;;11.00;99.90;;;;;;5032402;28;20105;-69
2023/01/01 06:48:55;;;;;;;20.98;4.05;;;11.40;99.90;;;;;;5032233;28;20498;-67
2023/01/01 06:51:26;;;;;;;17.83;2.90;;;10.70;99.90;;;;;;5032484;28;20071;-65
2023/01/01 06:53:52;;;;;;;23.23;3.47;;;11.30;99.90;;;;;;5032107;28;20493;-68
2023/01/01 06:56:18;;;;;;;;;;;11.50;99.90;;;;;;5032997;28;20033;-67
2023/01/01 06:58:44;;;;;;;17.17;4.60;;;11.10;99.90;;;;;;5032639;28;19999;-67
2023/01/01 07:01:15;;;;;;;25.85;3.47;;;11.20;99.90;;;;;;5031825;28;20457;-66
2023/01/01 07:03:41;;;;;;;15.55;2.88;;;10.90;99.90;;;;;;5032421;28;20446;-66
2023/01/01 07:06:07;;;;;;;18.17;3.90;;;11.20;99.90;;;;;;5032431;28;20087;-68
2023/01/01 07:08:33;;;;;;;;;;;11.00;99.90;;;;;;5032808;28;20049;-70
2023/01/01 07:10:59;;;;;;;26.50;4.88;;;11.30;99.90;;;;;;5032014;28;19921;-67
2023/01/01 07:13:27;;;;;;;22.95;4.22;;;10.80;99.90;;;;;;5031875;28;20402;-67
2023/01/01 07:15:53;;;;;;;22.15;3.42;;;10.80;99.90;;;;;;5030940;28;20053;-66
2023/01/01 07:18:19;;;;;;;20.38;3.88;;;10.90;99.90;;;;;;5031427;28;20045;-68
2023/01/01 07:20:52;;;;;;;26.30;3.47;;;11.00;99.90;;;;;;5030244;28;20157;-66
2023/01/01 07:23:18;;;;;;;26.70;4.25;;;11.10;99.90;;;;;;5031651;28;20052;-68
2023/01/01 07:25:43;;;;;;;16.40;3.38;;;11.00;99.90;;;;;;5031529;28;20045;-67
2023/01/01 07:28:09;;;;;;;30.13;4.80;;;10.80;99.90;;;;;;5031661;28;20098;-67
2023/01/01 07:30:35;;;;;;;27.40;4.35;;;11.50;99.90;;;;;;5031472;28;20052;-67
2023/01/01 07:33:01;;;;;;;31.75;4.85;;;10.40;99.90;;;;;;5031638;28;20502;-67
2023/01/01 07:35:26;;;;;;;32.38;4.05;;;10.80;99.90;;;;;;5031158;28;20501;-67
2023/01/01 07:37:52;;;;;;;25.50;3.97;;;11.00;99.90;;;;;;5031642;28;20061;-68
2023/01/01 07:40:18;;;;;;;33.03;4.03;;;11.40;99.90;;;;;;5031794;28;20049;-66
2023/01/01 07:42:43;;;;;;;32.80;5.05;;;10.70;99.90;;;;;;5031407;28;20077;-68
2023/01/01 07:45:11;;;;;;;23.70;4.40;;;10.50;99.90;;;;;;5031488;28;20441;-67
2023/01/01 07:47:37;;;;;;;28.90;3.95;;;10.70;99.90;;;;;;5031378;28;20107;-68
2023/01/01 07:50:04;;;;;;;33.17;4.72;;;10.30;99.90;;;;;;5031388;28;20474;-68
2023/01/01 07:52:29;;;;;;;27.42;4.50;;;10.60;99.90;;;;;;5031929;28;20049;-65
2023/01/01 07:54:55;;;;;;;38.65;6.15;;;11.00;99.90;;;;;;5031589;28;20482;-68
2023/01/01 07:57:21;;;;;;;22.15;4.15;;;11.20;99.90;;;;;;5031479;28;20053;-67
2023/01/01 07:59:46;;;;;;;28.30;4.80;;;10.90;99.90;;;;;;5030904;28;20064;-66
2023/01/01 08:02:12;;;;;;;38.22;5.05;;;10.70;99.90;;;;;;5031342;28;20071;-67
2023/01/01 08:04:38;;;;;;;37.35;6.40;;;10.70;99.90;;;;;;5031534;28;20377;-67
2023/01/01 08:07:04;;;;;;;30.95;4.70;;;10.60;99.90;;;;;;5031149;28;20175;-66
2023/01/01 08:09:30;;;;;;;;;;;11.00;99.90;;;;;;5031788;28;20045;-67
2023/01/01 08:11:57;;;;;;;26.75;4.68;;;10.30;99.90;;;;;;5031071;28;19932;-68
2023/01/01 08:14:24;;;;;;;30.35;5.50;;;10.60;99.90;;;;;;5030050;28;20445;-67
2023/01/01 08:16:50;;;;;;;32.22;5.75;;;10.10;99.90;;;;;;5029864;28;20466;-66
2023/01/01 08:19:16;;;;;;;31.67;4.75;;;10.80;99.90;;;;;;5031373;28;20124;-68
2023/01/01 08:21:42;;;;;;;26.35;4.55;;;10.70;99.90;;;;;;5030966;28;20137;-68
2023/01/01 08:24:08;;;;;;;34.55;5.63;;;10.60;99.90;;;;;;5029660;28;20059;-69
2023/01/01 08:26:35;;;;;;;21.55;4.32;;;10.80;99.90;;;;;;5013123;28;20053;-66
2023/01/01 08:29:04;;;;;;;24.98;4.65;;;10.60;99.90;;;;;;5034253;28;20494;-67
2023/01/01 08:31:30;;;;;;;25.52;4.30;;;10.70;99.90;;;;;;5035236;28;20128;-68
2023/01/01 08:33:55;;;;;;;29.58;4.90;;;10.70;99.90;;;;;;5034854;28;20124;-67
2023/01/01 08:36:21;;;;;;;37.50;4.78;;;10.20;99.90;;;;;;5033759;28;20037;-67
2023/01/01 08:38:47;;;;;;;30.38;4.72;;;10.80;99.90;;;;;;5035149;28;20545;-66
2023/01/01 08:41:13;;;;;;;40.38;6.22;;;10.40;99.90;;;;;;5034821;28;20052;-69
2023/01/01 08:43:38;;;;;;;29.52;5.70;;;10.70;99.90;;;;;;5034792;28;20072;-70
2023/01/01 08:46:04;;;;;;;38.03;5.68;;;10.90;99.90;;;;;;5033564;28;20099;-67
2023/01/01 08:48:30;;;;;;;32.13;4.63;;;10.30;99.90;;;;;;5033782;28;20049;-68
2023/01/01 08:51:00;;;;;;;35.78;4.78;;;10.40;99.90;;;;;;5034724;28;20041;-66
2023/01/01 08:53:30;;;;;;;33.42;6.15;;;10.70;99.90;;;;;;5034972;28;20046;-68
2023/01/01 08:55:57;;;;;;;30.40;5.35;;;10.10;99.90;;;;;;5034566;28;20053;-70
2023/01/01 08:58:22;;;;;;;32.85;6.15;;;10.40;99.90;;;;;;5034601;28;20072;-67
2023/01/01 09:00:49;;;;;;;35.35;5.28;;;11.20;99.90;;;;;;5034592;28;20061;-68
2023/01/01 09:03:15;;;;;;;34.70;5.47;;;10.70;99.90;;;;;;5034346;28;20545;-66
2023/01/01 09:05:44;;;;;;;27.75;4.65;;;11.10;99.90;;;;;;5034534;28;20099;-67
2023/01/01 09:08:14;;;;;;;33.20;5.82;;;10.40;99.90;;;;;;5033188;28;20049;-68
2023/01/01 09:10:41;;;;;;;34.28;5.72;;;11.50;99.90;;;;;;5033980;28;20053;-70
2023/01/01 09:13:08;;;;;;;35.55;4.60;;;11.10;99.90;;;;;;5034676;28;20092;-67
2023/01/01 09:15:33;;;;;;;;;;;10.70;99.90;;;;;;5033877;28;20084;-68
2023/01/01 09:17:59;;;;;;;28.42;5.25;;;11.20;99.90;;;;;;5034523;28;20389;-68
2023/01/01 09:20:24;;;;;;;30.67;5.03;;;10.50;99.90;;;;;;5034618;28;20041;-67
2023/01/01 09:22:50;;;;;;;38.95;5.35;;;11.40;99.90;;;;;;5034571;28;20136;-66
2023/01/01 09:25:16;;;;;;;35.70;4.95;;;10.80;99.90;;;;;;5032740;28;20045;-68
2023/01/01 09:27:42;;;;;;;37.22;5.07;;;11.10;99.90;;;;;;5034363;28;20131;-67
2023/01/01 09:30:08;;;;;;;32.55;5.20;;;10.90;99.90;;;;;;5032986;28;20045;-66
2023/01/01 09:32:34;;;;;;;38.28;4.93;;;10.60;99.90;;;;;;5033951;28;20080;-70
2023/01/01 09:35:00;;;;;;;31.70;5.53;;;11.00;99.90;;;;;;5034037;28;20087;-68
2023/01/01 09:37:26;;;;;;;37.70;5.25;;;11.10;99.90;;;;;;5033786;28;20042;-68
2023/01/01 09:39:52;;;;;;;34.95;5.10;;;10.80;99.90;;;;;;5031628;28;20057;-68
2023/01/01 09:42:22;;;;;;;30.05;5.60;;;10.50;99.90;;;;;;5033769;28;20057;-68
2023/01/01 09:44:48;;;;;;;33.08;5.70;;;11.20;99.90;;;;;;5033541;28;20124;-68
2023/01/01 09:47:38;;;;;;;29.95;4.93;;;11.30;99.90;;;;;;5033611;28;20450;-68
2023/01/01 09:50:11;;;;;;;27.45;5.43;;;10.90;99.90;;;;;;5033495;28;20053;-67
2023/01/01 09:52:51;;;;;;;30.58;5.32;;;10.80;99.90;;;;;;5033319;28;20037;-69
2023/01/01 09:55:42;;;;;;;36.90;6.20;;;11.10;99.90;;;;;;5033214;28;20046;-67
2023/01/01 09:58:10;;;;;;;38.08;5.75;;;11.30;99.90;;;;;;5032773;28;20053;-67
2023/01/01 10:00:40;;;;;;;35.55;5.78;;;10.70;99.90;;;;;;5033256;28;20490;-68
2023/01/01 10:03:30;;;;;;;40.95;6.10;;;10.60;99.90;;;;;;5033350;28;20041;-70
2023/01/01 10:06:02;;;;;;;36.28;5.75;;;10.40;99.90;;;;;;5033426;28;20551;-67
2023/01/01 10:08:50;;;;;;;38.30;5.68;;;11.50;99.90;;;;;;5032838;28;20276;-67
2023/01/01 10:11:23;;;;;;;35.40;5.55;;;10.80;99.90;;;;;;5033060;28;20045;-69
2023/01/01 10:13:50;;;;;;;36.92;5.60;;;11.30;99.90;;;;;;5032994;28;20505;-68
2023/01/01 10:16:35;;;;;;;38.97;6.75;;;11.30;99.90;;;;;;5032470;28;20505;-69
2023/01/01 10:19:16;;;;;;;38.60;6.07;;;10.50;99.90;;;;;;5032767;28;20050;-68
2023/01/01 10:21:43;;;;;;;31.70;5.90;;;11.50;99.90;;;;;;5033146;28;20087;-67
2023/01/01 10:24:26;;;;;;;35.85;5.28;;;11.40;99.90;;;;;;5032611;28;20136;-67
2023/01/01 10:26:54;;;;;;;42.38;5.93;;;11.20;99.90;;;;;;5032690;28;20041;-67
2023/01/01 10:29:45;;;;;;;27.10;4.72;;;10.60;99.90;;;;;;5032728;28;20121;-67
2023/01/01 10:32:30;;;;;;;38.00;5.63;;;11.70;99.90;;;;;;5022313;28;20452;-68
2023/01/01 10:34:57;;;;;;;35.83;5.15;;;11.40;99.90;;;;;;5032708;28;20049;-72
2023/01/01 10:37:24;;;;;;;32.55;5.88;;;10.90;99.90;;;;;;5032269;28;20052;-68
2023/01/01 10:39:50;;;;;;;40.72;5.90;;;11.30;99.90;;;;;;5032825;28;20093;-68
2023/01/01 10:42:16;;;;;;;37.38;5.28;;;10.80;99.90;;;;;;5032594;28;20115;-69
2023/01/01 10:44:42;;;;;;;28.40;4.85;;;11.60;99.90;;;;;;5032441;28;20226;-67
2023/01/01 10:47:27;;;;;;;31.20;5.18;;;11.50;99.90;;;;;;5031138;28;20045;-69
2023/01/01 10:50:06;;;;;;;29.23;5.38;;;11.50;99.90;;;;;;5032555;28;20513;-67
2023/01/01 10:52:44;;;;;;;30.35;4.88;;;11.50;99.90;;;;;;5031902;28;20041;-69
2023/01/01 10:55:20;;;;;;;33.30;5.75;;;11.40;99.90;;;;;;5032176;28;20191;-68
2023/01/01 10:57:46;;;;;;;;;;;11.70;99.90;;;;;;5032493;28;20093;-68
2023/01/01 11:00:26;;;;;;;31.48;4.53;;;11.10;99.90;;;;;;5032076;28;19964;-67
2023/01/01 11:03:14;;;;;;;30.80;5.68;;;11.00;99.90;;;;;;5032073;28;20037;-68
2023/01/01 11:05:59;;;;;;;34.45;4.70;;;11.40;99.90;;;;;;5031781;28;20046;-67
2023/01/01 11:08:26;;;;;;;25.65;4.15;;;11.50;99.90;;;;;;5031943;28;20060;-70
2023/01/01 11:10:53;;;;;;;27.55;4.80;;;11.10;99.90;;;;;;5031931;28;20049;-67
2023/01/01 11:13:19;;;;;;;;;;;11.30;99.90;;;;;;5032521;28;20049;-68
2023/01/01 11:15:45;;;;;;;27.90;4.68;;;11.30;99.90;;;;;;5031572;28;20293;-68
2023/01/01 11:18:15;;;;;;;38.58;4.80;;;11.20;99.90;;;;;;5031912;28;20053;-68
2023/01/01 11:20:41;;;;;;;28.10;4.90;;;11.00;99.90;;;;;;5032048;28;20080;-68
2023/01/01 11:23:35;;;;;;;30.10;4.90;;;11.60;99.90;;;;;;5031932;28;20041;-66
2023/01/01 11:26:03;;;;;;;26.55;4.78;;;11.30;99.90;;;;;;5031931;28;20041;-68
2023/01/01 11:28:33;;;;;;;27.35;4.50;;;10.90;99.90;;;;;;5031990;28;20095;-67
2023/01/01 11:31:18;;;;;;;32.25;4.63;;;10.70;99.90;;;;;;5032283;28;20053;-68
2023/01/01 11:33:54;;;;;;;25.55;4.93;;;11.30;99.90;;;;;;5032078;28;20045;-67
2023/01/01 11:36:23;;;;;;;35.15;4.82;;;11.20;99.90;;;;;;5031425;28;20084;-69
2023/01/01 11:39:02;;;;;;;30.05;4.43;;;10.90;99.90;;;;;;5031368;28;20095;-68
2023/01/01 11:41:38;;;;;;;34.33;4.00;;;10.70;99.90;;;;;;5031451;28;20484;-67
2023/01/01 11:44:04;;;;;;;24.10;4.47;;;11.40;99.90;;;;;;5031924;28;20088;-69
2023/01/01 11:46:30;;;;;;;26.00;4.30;;;11.00;99.90;;;;;;5031461;28;20049;-68
2023/01/01 11:48:56;;;;;;;29.25;4.45;;;10.70;99.90;;;;;;5031777;28;20049;-68
2023/01/01 11:51:31;;;;;;;26.63;3.90;;;11.60;99.90;;;;;;5030992;28;20055;-70
2023/01/01 11:54:37;;;;;;;39.80;5.13;;;10.80;99.90;;;;;;5031341;28;20152;-68
2023/01/01 11:57:17;;;;;;;34.53;4.07;;;11.40;99.90;;;;;;5026808;28;20061;-68
2023/01/01 11:59:52;;;;;;;27.40;4.13;;;11.30;99.90;;;;;;5031100;28;20056;-69
2023/01/01 12:02:35;;;;;;;29.70;4.93;;;10.90;99.90;;;;;;5029459;28;20049;-70
2023/01/01 12:05:22;;;;;;;33.20;5.10;;;11.80;99.90;;;;;;5031013;28;20049;-68
2023/01/01 12:07:48;;;;;;;;;;;11.50;99.90;;;;;;5031563;28;20110;-70
2023/01/01 12:10:31;;;;;;;28.08;4.15;;;11.20;99.90;;;;;;5013690;28;20015;-69
2023/01/01 12:13:03;;;;;;;23.00;4.22;;;11.00;99.90;;;;;;5030958;28;20045;-68
2023/01/01 12:15:48;;;;;;;25.27;3.83;;;11.60;99.90;;;;;;5030789;28;20053;-68
2023/01/01 12:18:30;;;;;;;24.33;4.75;;;11.10;99.90;;;;;;5030838;28;20053;-68
2023/01/01 12:21:17;;;;;;;25.35;4.07;;;11.70;99.90;;;;;;5029606;28;20049;-67
2023/01/01 12:23:43;;;;;;;27.33;5.13;;;11.40;99.90;;;;;;5030926;28;20084;-67
2023/01/01 12:26:33;;;;;;;26.20;3.88;;;11.30;99.90;;;;;;5030928;28;20080;-66
2023/01/01 12:29:25;;;;;;;21.60;3.30;;;11.50;99.90;;;;;;5031050;28;20053;-66
2023/01/01 12:31:59;;;;;;;23.25;4.13;;;11.70;99.90;;;;;;5009123;28;20061;-68
2023/01/01 12:34:32;;;;;;;26.83;4.50;;;11.50;99.90;;;;;;5030495;28;20056;-67
2023/01/01 12:37:30;;;;;;;35.17;5.30;;;11.50;99.90;;;;;;5031031;28;20038;-68
2023/01/01 12:40:47;;;;;;;24.13;4.30;;;12.10;99.90;;;;;;4997644;28;20049;-69
2023/01/01 12:43:47;;;;;;;25.08;3.88;;;11.70;99.90;;;;;;5017471;28;20068;-71
2023/01/01 12:46:34;;;;;;;30.55;3.67;;;11.70;99.90;;;;;;5030542;28;20474;-68
2023/01/01 12:49:37;;;;;;;21.98;3.50;;;11.20;99.90;;;;;;5030421;28;20120;-70
2023/01/01 12:52:14;;;;;;;28.52;4.28;;;11.80;99.90;;;;;;5030431;28;20049;-68
2023/01/01 12:55:01;;;;;;;24.95;3.85;;;11.70;99.90;;;;;;5030379;28;20508;-68
2023/01/01 12:57:49;;;;;;;27.33;4.90;;;11.70;99.90;;;;;;5030163;28;20057;-69
2023/01/01 13:00:18;;;;;;;29.05;5.07;;;10.90;99.90;;;;;;5030423;28;20448;-68
2023/01/01 13:03:03;;;;;;;24.92;4.18;;;11.70;99.90;;;;;;5029995;28;20152;-69